sensor_id;sensor_type;location;lat;lon;timestamp;P1;durP1;ratioP1;P2;durP2;ratioP2
3267;SDS011;1646;52.450;13.326;2023-04-22T00:00:07;8.10;;;6.23;;
3267;SDS011;1646;52.450;13.326;2023-04-22T00:05:09;8.50;;;5.67;;
3267;SDS011;1646;52.450;13.326;2023-04-22T00:10:12;9.23;;;5.97;;
3267;SDS011;1646;52.450;13.326;2023-04-22T00:15:10;9.20;;;6.30;;
3267;SDS011;1646;52.450;13.326;2023-04-22T00:20:10;9.50;;;6.37;;
3267;SDS011;1646;52.450;13.326;2023-04-22T00:25:08;10.90;;;6.73;;
3267;SDS011;1646;52.450;13.326;2023-04-22T00:30:07;9.00;;;6.20;;
3267;SDS011;1646;52.450;13.326;2023-04-22T00:35:06;9.30;;;6.67;;
3267;SDS011;1646;52.450;13.326;2023-04-22T00:40:07;13.13;;;6.20;;
3267;SDS011;1646;52.450;13.326;2023-04-22T00:45:08;9.23;;;6.20;;
3267;SDS011;1646;52.450;13.326;2023-04-22T00:50:08;9.27;;;6.57;;
3267;SDS011;1646;52.450;13.326;2023-04-22T00:55:08;8.63;;;6.37;;
3267;SDS011;1646;52.450;13.326;2023-04-22T01:00:07;6.67;;;5.93;;
3267;SDS011;1646;52.450;13.326;2023-04-22T01:05:07;9.77;;;6.00;;
3267;SDS011;1646;52.450;13.326;2023-04-22T01:10:08;8.70;;;6.00;;
3267;SDS011;1646;52.450;13.326;2023-04-22T01:15:07;14.53;;;7.07;;
3267;SDS011;1646;52.450;13.326;2023-04-22T01:20:06;12.70;;;6.80;;
3267;SDS011;1646;52.450;13.326;2023-04-22T01:25:08;11.80;;;7.30;;
3267;SDS011;1646;52.450;13.326;2023-04-22T01:30:07;10.03;;;6.80;;
3267;SDS011;1646;52.450;13.326;2023-04-22T01:35:08;14.23;;;6.40;;
3267;SDS011;1646;52.450;13.326;2023-04-22T01:40:09;12.30;;;7.13;;
3267;SDS011;1646;52.450;13.326;2023-04-22T01:45:09;10.10;;;7.07;;
3267;SDS011;1646;52.450;13.326;2023-04-22T01:50:08;10.27;;;6.53;;
3267;SDS011;1646;52.450;13.326;2023-04-22T01:55:09;12.63;;;6.90;;
3267;SDS011;1646;52.450;13.326;2023-04-22T02:00:07;13.93;;;6.43;;
3267;SDS011;1646;52.450;13.326;2023-04-22T02:05:14;9.87;;;6.50;;
3267;SDS011;1646;52.450;13.326;2023-04-22T02:10:16;10.77;;;7.00;;
3267;SDS011;1646;52.450;13.326;2023-04-22T02:15:14;10.53;;;6.90;;
3267;SDS011;1646;52.450;13.326;2023-04-22T02:20:30;11.97;;;6.93;;
3267;SDS011;1646;52.450;13.326;2023-04-22T02:25:29;13.73;;;7.37;;
3267;SDS011;1646;52.450;13.326;2023-04-22T02:30:27;11.50;;;7.63;;
3267;SDS011;1646;52.450;13.326;2023-04-22T02:35:25;10.97;;;7.17;;
3267;SDS011;1646;52.450;13.326;2023-04-22T02:40:24;11.83;;;7.50;;
3267;SDS011;1646;52.450;13.326;2023-04-22T02:45:23;11.97;;;7.00;;
3267;SDS011;1646;52.450;13.326;2023-04-22T02:50:21;9.23;;;6.77;;
3267;SDS011;1646;52.450;13.326;2023-04-22T02:55:20;11.23;;;7.30;;
3267;SDS011;1646;52.450;13.326;2023-04-22T03:00:19;10.97;;;7.50;;
3267;SDS011;1646;52.450;13.326;2023-04-22T03:05:19;10.50;;;7.53;;
3267;SDS011;1646;52.450;13.326;2023-04-22T03:10:18;11.80;;;7.80;;
3267;SDS011;1646;52.450;13.326;2023-04-22T03:15:16;9.23;;;6.80;;
3267;SDS011;1646;52.450;13.326;2023-04-22T03:20:17;11.33;;;7.20;;
3267;SDS011;1646;52.450;13.326;2023-04-22T03:25:17;13.63;;;7.43;;
3267;SDS011;1646;52.450;13.326;2023-04-22T03:30:20;11.23;;;7.70;;
3267;SDS011;1646;52.450;13.326;2023-04-22T03:35:19;11.57;;;8.00;;
3267;SDS011;1646;52.450;13.326;2023-04-22T03:40:21;10.77;;;7.17;;
3267;SDS011;1646;52.450;13.326;2023-04-22T03:45:19;12.57;;;7.60;;
3267;SDS011;1646;52.450;13.326;2023-04-22T03:50:30;11.37;;;6.90;;
3267;SDS011;1646;52.450;13.326;2023-04-22T03:55:31;16.80;;;8.07;;
3267;SDS011;1646;52.450;13.326;2023-04-22T04:00:29;15.00;;;7.90;;
3267;SDS011;1646;52.450;13.326;2023-04-22T04:05:37;11.60;;;7.60;;
3267;SDS011;1646;52.450;13.326;2023-04-22T04:10:36;13.30;;;8.30;;
3267;SDS011;1646;52.450;13.326;2023-04-22T04:15:35;12.80;;;7.40;;
3267;SDS011;1646;52.450;13.326;2023-04-22T04:20:35;13.53;;;7.47;;
3267;SDS011;1646;52.450;13.326;2023-04-22T04:25:33;11.60;;;7.70;;
3267;SDS011;1646;52.450;13.326;2023-04-22T04:30:39;22.20;;;9.37;;
3267;SDS011;1646;52.450;13.326;2023-04-22T04:35:38;11.63;;;8.87;;
3267;SDS011;1646;52.450;13.326;2023-04-22T04:40:39;10.30;;;7.30;;
3267;SDS011;1646;52.450;13.326;2023-04-22T04:45:46;13.47;;;7.50;;
3267;SDS011;1646;52.450;13.326;2023-04-22T04:50:50;20.50;;;8.40;;
3267;SDS011;1646;52.450;13.326;2023-04-22T04:55:51;13.33;;;7.83;;
3267;SDS011;1646;52.450;13.326;2023-04-22T05:00:53;11.10;;;7.83;;
3267;SDS011;1646;52.450;13.326;2023-04-22T05:05:54;11.80;;;7.90;;
3267;SDS011;1646;52.450;13.326;2023-04-22T05:10:54;16.00;;;7.73;;
3267;SDS011;1646;52.450;13.326;2023-04-22T05:15:54;12.87;;;7.63;;
3267;SDS011;1646;52.450;13.326;2023-04-22T05:20:54;11.83;;;6.93;;
3267;SDS011;1646;52.450;13.326;2023-04-22T05:25:54;10.60;;;7.77;;
3267;SDS011;1646;52.450;13.326;2023-04-22T05:30:54;12.40;;;7.40;;
3267;SDS011;1646;52.450;13.326;2023-04-22T05:35:55;11.13;;;7.27;;
3267;SDS011;1646;52.450;13.326;2023-04-22T05:40:54;12.50;;;7.50;;
3267;SDS011;1646;52.450;13.326;2023-04-22T05:45:55;10.17;;;7.33;;
3267;SDS011;1646;52.450;13.326;2023-04-22T05:50:55;12.50;;;7.40;;
3267;SDS011;1646;52.450;13.326;2023-04-22T05:55:56;14.67;;;8.33;;
3267;SDS011;1646;52.450;13.326;2023-04-22T06:00:57;16.30;;;8.70;;
3267;SDS011;1646;52.450;13.326;2023-04-22T06:06:13;12.57;;;7.60;;
3267;SDS011;1646;52.450;13.326;2023-04-22T06:11:12;13.70;;;7.30;;
3267;SDS011;1646;52.450;13.326;2023-04-22T06:16:11;12.17;;;8.20;;
3267;SDS011;1646;52.450;13.326;2023-04-22T06:21:10;12.10;;;7.80;;
3267;SDS011;1646;52.450;13.326;2023-04-22T06:26:08;20.97;;;9.07;;
3267;SDS011;1646;52.450;13.326;2023-04-22T06:31:07;16.63;;;8.07;;
3267;SDS011;1646;52.450;13.326;2023-04-22T06:36:07;13.63;;;8.57;;
3267;SDS011;1646;52.450;13.326;2023-04-22T06:41:06;12.13;;;7.70;;
3267;SDS011;1646;52.450;13.326;2023-04-22T06:46:08;13.23;;;8.40;;
3267;SDS011;1646;52.450;13.326;2023-04-22T06:51:26;14.93;;;8.30;;
3267;SDS011;1646;52.450;13.326;2023-04-22T06:56:25;10.77;;;7.37;;
3267;SDS011;1646;52.450;13.326;2023-04-22T07:01:23;13.93;;;9.00;;
3267;SDS011;1646;52.450;13.326;2023-04-22T07:06:21;16.53;;;9.00;;
3267;SDS011;1646;52.450;13.326;2023-04-22T07:11:21;15.43;;;8.67;;
3267;SDS011;1646;52.450;13.326;2023-04-22T07:16:31;15.23;;;9.20;;
3267;SDS011;1646;52.450;13.326;2023-04-22T07:21:30;14.13;;;9.37;;
3267;SDS011;1646;52.450;13.326;2023-04-22T07:26:30;11.00;;;7.67;;
3267;SDS011;1646;52.450;13.326;2023-04-22T07:31:29;14.80;;;8.13;;
3267;SDS011;1646;52.450;13.326;2023-04-22T07:36:28;9.83;;;8.30;;
3267;SDS011;1646;52.450;13.326;2023-04-22T07:41:29;20.63;;;8.17;;
3267;SDS011;1646;52.450;13.326;2023-04-22T07:46:27;15.23;;;8.80;;
3267;SDS011;1646;52.450;13.326;2023-04-22T07:51:26;10.60;;;7.90;;
3267;SDS011;1646;52.450;13.326;2023-04-22T07:56:25;15.70;;;8.40;;
3267;SDS011;1646;52.450;13.326;2023-04-22T08:01:24;11.90;;;8.00;;
3267;SDS011;1646;52.450;13.326;2023-04-22T08:06:23;11.83;;;7.60;;
3267;SDS011;1646;52.450;13.326;2023-04-22T08:11:21;13.43;;;8.63;;
3267;SDS011;1646;52.450;13.326;2023-04-22T08:16:19;14.40;;;8.73;;
3267;SDS011;1646;52.450;13.326;2023-04-22T08:21:19;15.10;;;8.03;;
3267;SDS011;1646;52.450;13.326;2023-04-22T08:26:17;14.33;;;7.90;;
3267;SDS011;1646;52.450;13.326;2023-04-22T08:31:15;9.57;;;7.70;;
3267;SDS011;1646;52.450;13.326;2023-04-22T08:36:14;11.50;;;7.00;;
3267;SDS011;1646;52.450;13.326;2023-04-22T08:41:13;14.07;;;8.20;;
3267;SDS011;1646;52.450;13.326;2023-04-22T08:46:12;17.87;;;7.77;;
3267;SDS011;1646;52.450;13.326;2023-04-22T08:51:12;13.17;;;7.70;;
3267;SDS011;1646;52.450;13.326;2023-04-22T08:56:13;13.77;;;7.50;;
3267;SDS011;1646;52.450;13.326;2023-04-22T09:01:11;9.43;;;6.50;;
3267;SDS011;1646;52.450;13.326;2023-04-22T09:06:10;10.50;;;6.90;;
3267;SDS011;1646;52.450;13.326;2023-04-22T09:11:08;8.47;;;6.10;;
3267;SDS011;1646;52.450;13.326;2023-04-22T09:16:08;11.80;;;6.33;;
3267;SDS011;1646;52.450;13.326;2023-04-22T09:21:07;12.13;;;6.60;;
3267;SDS011;1646;52.450;13.326;2023-04-22T09:26:05;10.83;;;6.10;;
3267;SDS011;1646;52.450;13.326;2023-04-22T09:31:04;10.80;;;6.57;;
3267;SDS011;1646;52.450;13.326;2023-04-22T09:36:06;12.43;;;6.83;;
3267;SDS011;1646;52.450;13.326;2023-04-22T09:41:07;14.17;;;6.60;;
3267;SDS011;1646;52.450;13.326;2023-04-22T09:46:06;9.23;;;5.90;;
3267;SDS011;1646;52.450;13.326;2023-04-22T09:51:14;8.13;;;5.10;;
3267;SDS011;1646;52.450;13.326;2023-04-22T09:56:13;8.17;;;5.73;;
3267;SDS011;1646;52.450;13.326;2023-04-22T10:01:11;6.27;;;5.67;;
3267;SDS011;1646;52.450;13.326;2023-04-22T10:06:09;11.93;;;5.40;;
3267;SDS011;1646;52.450;13.326;2023-04-22T10:11:09;10.50;;;5.33;;
3267;SDS011;1646;52.450;13.326;2023-04-22T10:16:08;10.10;;;6.03;;
3267;SDS011;1646;52.450;13.326;2023-04-22T10:21:06;9.20;;;5.90;;
3267;SDS011;1646;52.450;13.326;2023-04-22T10:26:05;7.70;;;5.50;;
3267;SDS011;1646;52.450;13.326;2023-04-22T10:31:18;12.60;;;5.50;;
3267;SDS011;1646;52.450;13.326;2023-04-22T10:36:18;8.63;;;4.90;;
3267;SDS011;1646;52.450;13.326;2023-04-22T10:41:20;10.00;;;5.20;;
3267;SDS011;1646;52.450;13.326;2023-04-22T10:51:57;8.20;;;5.43;;
3267;SDS011;1646;52.450;13.326;2023-04-22T10:56:59;7.23;;;5.50;;
3267;SDS011;1646;52.450;13.326;2023-04-22T11:02:01;5.97;;;5.20;;
3267;SDS011;1646;52.450;13.326;2023-04-22T11:07:11;7.03;;;5.07;;
3267;SDS011;1646;52.450;13.326;2023-04-22T11:17:42;6.10;;;4.83;;
3267;SDS011;1646;52.450;13.326;2023-04-22T11:22:42;6.33;;;5.17;;
3267;SDS011;1646;52.450;13.326;2023-04-22T11:27:41;7.97;;;5.60;;
3267;SDS011;1646;52.450;13.326;2023-04-22T11:32:40;8.83;;;4.70;;
3267;SDS011;1646;52.450;13.326;2023-04-22T11:37:42;8.70;;;4.83;;
3267;SDS011;1646;52.450;13.326;2023-04-22T11:42:42;7.70;;;4.87;;
3267;SDS011;1646;52.450;13.326;2023-04-22T11:47:40;9.23;;;5.17;;
3267;SDS011;1646;52.450;13.326;2023-04-22T11:52:42;6.70;;;4.70;;
3267;SDS011;1646;52.450;13.326;2023-04-22T11:57:41;11.47;;;5.00;;
3267;SDS011;1646;52.450;13.326;2023-04-22T12:02:43;8.27;;;5.17;;
3267;SDS011;1646;52.450;13.326;2023-04-22T12:07:52;5.43;;;4.70;;
3267;SDS011;1646;52.450;13.326;2023-04-22T12:12:51;6.33;;;4.83;;
3267;SDS011;1646;52.450;13.326;2023-04-22T12:17:50;10.70;;;4.60;;
3267;SDS011;1646;52.450;13.326;2023-04-22T12:22:51;8.83;;;4.77;;
3267;SDS011;1646;52.450;13.326;2023-04-22T12:27:49;7.53;;;4.10;;
3267;SDS011;1646;52.450;13.326;2023-04-22T12:32:48;6.27;;;4.27;;
3267;SDS011;1646;52.450;13.326;2023-04-22T12:37:47;8.70;;;5.30;;
3267;SDS011;1646;52.450;13.326;2023-04-22T12:42:47;8.47;;;5.30;;
3267;SDS011;1646;52.450;13.326;2023-04-22T12:47:45;5.67;;;5.10;;
3267;SDS011;1646;52.450;13.326;2023-04-22T12:52:45;5.63;;;4.83;;
3267;SDS011;1646;52.450;13.326;2023-04-22T12:57:46;7.80;;;5.43;;
3267;SDS011;1646;52.450;13.326;2023-04-22T13:02:46;8.87;;;4.80;;
3267;SDS011;1646;52.450;13.326;2023-04-22T13:07:45;8.20;;;5.07;;
3267;SDS011;1646;52.450;13.326;2023-04-22T13:13:03;6.60;;;5.23;;
3267;SDS011;1646;52.450;13.326;2023-04-22T13:18:06;8.70;;;6.00;;
3267;SDS011;1646;52.450;13.326;2023-04-22T13:23:04;7.37;;;5.30;;
3267;SDS011;1646;52.450;13.326;2023-04-22T13:28:04;8.03;;;5.23;;
3267;SDS011;1646;52.450;13.326;2023-04-22T13:33:03;6.63;;;5.43;;
3267;SDS011;1646;52.450;13.326;2023-04-22T13:38:01;8.93;;;5.43;;
3267;SDS011;1646;52.450;13.326;2023-04-22T13:43:00;6.67;;;5.23;;
3267;SDS011;1646;52.450;13.326;2023-04-22T13:48:00;8.30;;;5.47;;
3267;SDS011;1646;52.450;13.326;2023-04-22T13:52:58;6.93;;;4.87;;
3267;SDS011;1646;52.450;13.326;2023-04-22T13:57:56;8.07;;;5.40;;
3267;SDS011;1646;52.450;13.326;2023-04-22T14:02:56;5.73;;;5.20;;
3267;SDS011;1646;52.450;13.326;2023-04-22T14:07:57;8.03;;;5.63;;
3267;SDS011;1646;52.450;13.326;2023-04-22T14:12:56;10.20;;;4.70;;
3267;SDS011;1646;52.450;13.326;2023-04-22T14:17:54;7.53;;;4.60;;
3267;SDS011;1646;52.450;13.326;2023-04-22T14:22:53;13.33;;;5.47;;
3267;SDS011;1646;52.450;13.326;2023-04-22T14:27:52;9.57;;;4.77;;
3267;SDS011;1646;52.450;13.326;2023-04-22T14:32:51;6.73;;;4.80;;
3267;SDS011;1646;52.450;13.326;2023-04-22T14:37:49;9.23;;;4.87;;
3267;SDS011;1646;52.450;13.326;2023-04-22T14:42:47;6.87;;;4.93;;
3267;SDS011;1646;52.450;13.326;2023-04-22T14:48:05;5.80;;;5.20;;
3267;SDS011;1646;52.450;13.326;2023-04-22T14:53:04;7.73;;;5.20;;
3267;SDS011;1646;52.450;13.326;2023-04-22T14:58:05;7.23;;;4.80;;
3267;SDS011;1646;52.450;13.326;2023-04-22T15:03:03;8.23;;;4.57;;
3267;SDS011;1646;52.450;13.326;2023-04-22T15:08:03;5.97;;;4.37;;
3267;SDS011;1646;52.450;13.326;2023-04-22T15:13:01;5.77;;;4.57;;
3267;SDS011;1646;52.450;13.326;2023-04-22T15:18:00;11.00;;;5.10;;
3267;SDS011;1646;52.450;13.326;2023-04-22T15:22:59;12.43;;;4.77;;
3267;SDS011;1646;52.450;13.326;2023-04-22T15:27:59;6.47;;;4.50;;
3267;SDS011;1646;52.450;13.326;2023-04-22T15:32:58;11.73;;;5.10;;
3267;SDS011;1646;52.450;13.326;2023-04-22T15:37:56;6.77;;;4.40;;
3267;SDS011;1646;52.450;13.326;2023-04-22T15:42:55;5.73;;;4.67;;
3267;SDS011;1646;52.450;13.326;2023-04-22T15:47:55;5.87;;;3.90;;
3267;SDS011;1646;52.450;13.326;2023-04-22T15:52:53;6.37;;;4.20;;
3267;SDS011;1646;52.450;13.326;2023-04-22T15:57:51;8.03;;;4.43;;
3267;SDS011;1646;52.450;13.326;2023-04-22T16:02:49;8.43;;;4.30;;
3267;SDS011;1646;52.450;13.326;2023-04-22T16:07:52;5.67;;;5.07;;
3267;SDS011;1646;52.450;13.326;2023-04-22T16:12:51;7.43;;;5.13;;
3267;SDS011;1646;52.450;13.326;2023-04-22T16:17:49;6.77;;;4.40;;
3267;SDS011;1646;52.450;13.326;2023-04-22T16:22:48;8.13;;;4.20;;
3267;SDS011;1646;52.450;13.326;2023-04-22T16:27:47;6.23;;;4.30;;
3267;SDS011;1646;52.450;13.326;2023-04-22T16:32:46;6.10;;;3.80;;
3267;SDS011;1646;52.450;13.326;2023-04-22T16:37:44;9.97;;;4.40;;
3267;SDS011;1646;52.450;13.326;2023-04-22T16:42:43;6.50;;;4.00;;
3267;SDS011;1646;52.450;13.326;2023-04-22T16:47:42;10.10;;;4.20;;
3267;SDS011;1646;52.450;13.326;2023-04-22T16:52:40;5.73;;;4.93;;
3267;SDS011;1646;52.450;13.326;2023-04-22T16:57:39;5.70;;;4.63;;
3267;SDS011;1646;52.450;13.326;2023-04-22T17:02:37;7.10;;;4.40;;
3267;SDS011;1646;52.450;13.326;2023-04-22T17:07:37;6.47;;;4.70;;
3267;SDS011;1646;52.450;13.326;2023-04-22T17:12:35;6.87;;;4.90;;
3267;SDS011;1646;52.450;13.326;2023-04-22T17:17:33;7.10;;;5.27;;
3267;SDS011;1646;52.450;13.326;2023-04-22T17:22:33;4.67;;;4.17;;
3267;SDS011;1646;52.450;13.326;2023-04-22T17:27:33;5.97;;;4.90;;
3267;SDS011;1646;52.450;13.326;2023-04-22T17:32:31;8.83;;;4.53;;
3267;SDS011;1646;52.450;13.326;2023-04-22T17:37:29;8.60;;;5.07;;
3267;SDS011;1646;52.450;13.326;2023-04-22T17:42:27;7.37;;;5.20;;
3267;SDS011;1646;52.450;13.326;2023-04-22T17:47:42;6.97;;;5.20;;
3267;SDS011;1646;52.450;13.326;2023-04-22T17:52:40;7.10;;;5.30;;
3267;SDS011;1646;52.450;13.326;2023-04-22T17:57:39;10.03;;;5.23;;
3267;SDS011;1646;52.450;13.326;2023-04-22T18:02:37;13.53;;;6.60;;
3267;SDS011;1646;52.450;13.326;2023-04-22T18:07:37;8.80;;;5.70;;
3267;SDS011;1646;52.450;13.326;2023-04-22T18:12:36;7.60;;;5.20;;
3267;SDS011;1646;52.450;13.326;2023-04-22T18:17:34;9.40;;;5.40;;
3267;SDS011;1646;52.450;13.326;2023-04-22T18:22:32;8.77;;;5.60;;
3267;SDS011;1646;52.450;13.326;2023-04-22T18:27:32;7.50;;;6.47;;
3267;SDS011;1646;52.450;13.326;2023-04-22T18:32:30;9.40;;;5.87;;
3267;SDS011;1646;52.450;13.326;2023-04-22T18:37:28;8.73;;;5.53;;
3267;SDS011;1646;52.450;13.326;2023-04-22T18:42:30;8.93;;;5.87;;
3267;SDS011;1646;52.450;13.326;2023-04-22T18:47:29;11.53;;;6.30;;
3267;SDS011;1646;52.450;13.326;2023-04-22T18:52:27;13.23;;;7.33;;
3267;SDS011;1646;52.450;13.326;2023-04-22T18:57:26;10.10;;;6.70;;
3267;SDS011;1646;52.450;13.326;2023-04-22T19:02:25;13.17;;;7.57;;
3267;SDS011;1646;52.450;13.326;2023-04-22T19:07:24;11.40;;;8.03;;
3267;SDS011;1646;52.450;13.326;2023-04-22T19:12:22;13.57;;;7.83;;
3267;SDS011;1646;52.450;13.326;2023-04-22T19:17:20;11.60;;;8.17;;
3267;SDS011;1646;52.450;13.326;2023-04-22T19:22:20;11.73;;;8.80;;
3267;SDS011;1646;52.450;13.326;2023-04-22T19:27:18;12.47;;;8.00;;
3267;SDS011;1646;52.450;13.326;2023-04-22T19:32:17;17.03;;;9.10;;
3267;SDS011;1646;52.450;13.326;2023-04-22T19:37:16;12.63;;;8.87;;
3267;SDS011;1646;52.450;13.326;2023-04-22T19:42:15;14.70;;;9.03;;
3267;SDS011;1646;52.450;13.326;2023-04-22T19:47:16;13.13;;;9.20;;
3267;SDS011;1646;52.450;13.326;2023-04-22T19:52:14;12.23;;;8.90;;
3267;SDS011;1646;52.450;13.326;2023-04-22T19:57:13;13.30;;;9.57;;
3267;SDS011;1646;52.450;13.326;2023-04-22T20:02:13;15.00;;;8.77;;
3267;SDS011;1646;52.450;13.326;2023-04-22T20:07:12;19.50;;;9.90;;
3267;SDS011;1646;52.450;13.326;2023-04-22T20:12:11;20.03;;;9.30;;
3267;SDS011;1646;52.450;13.326;2023-04-22T20:17:10;14.30;;;9.23;;
3267;SDS011;1646;52.450;13.326;2023-04-22T20:22:09;11.83;;;9.07;;
3267;SDS011;1646;52.450;13.326;2023-04-22T20:27:10;13.50;;;9.40;;
3267;SDS011;1646;52.450;13.326;2023-04-22T20:32:09;10.00;;;8.40;;
3267;SDS011;1646;52.450;13.326;2023-04-22T20:37:07;14.93;;;8.97;;
3267;SDS011;1646;52.450;13.326;2023-04-22T20:42:08;15.47;;;9.33;;
3267;SDS011;1646;52.450;13.326;2023-04-22T20:47:07;23.43;;;8.80;;
3267;SDS011;1646;52.450;13.326;2023-04-22T20:52:06;10.17;;;7.87;;
3267;SDS011;1646;52.450;13.326;2023-04-22T20:57:06;14.20;;;8.40;;
3267;SDS011;1646;52.450;13.326;2023-04-22T21:02:05;10.83;;;8.60;;
3267;SDS011;1646;52.450;13.326;2023-04-22T21:07:04;10.63;;;8.33;;
3267;SDS011;1646;52.450;13.326;2023-04-22T21:12:09;10.33;;;8.27;;
3267;SDS011;1646;52.450;13.326;2023-04-22T21:17:08;10.53;;;7.33;;
3267;SDS011;1646;52.450;13.326;2023-04-22T21:22:16;8.70;;;7.80;;
3267;SDS011;1646;52.450;13.326;2023-04-22T21:27:19;11.27;;;7.47;;
3267;SDS011;1646;52.450;13.326;2023-04-22T21:32:18;11.70;;;7.60;;
3267;SDS011;1646;52.450;13.326;2023-04-22T21:37:16;12.83;;;8.00;;
3267;SDS011;1646;52.450;13.326;2023-04-22T21:42:14;10.27;;;8.03;;
3267;SDS011;1646;52.450;13.326;2023-04-22T21:47:14;9.83;;;7.53;;
3267;SDS011;1646;52.450;13.326;2023-04-22T21:52:12;12.60;;;9.00;;
3267;SDS011;1646;52.450;13.326;2023-04-22T21:57:10;13.30;;;9.00;;
3267;SDS011;1646;52.450;13.326;2023-04-22T22:02:09;14.43;;;8.00;;
3267;SDS011;1646;52.450;13.326;2023-04-22T22:07:08;13.10;;;7.93;;
3267;SDS011;1646;52.450;13.326;2023-04-22T22:12:07;11.30;;;7.80;;
3267;SDS011;1646;52.450;13.326;2023-04-22T22:17:07;13.40;;;8.43;;
3267;SDS011;1646;52.450;13.326;2023-04-22T22:22:05;16.00;;;7.60;;
3267;SDS011;1646;52.450;13.326;2023-04-22T22:27:05;13.63;;;8.07;;
3267;SDS011;1646;52.450;13.326;2023-04-22T22:32:05;10.80;;;8.27;;
3267;SDS011;1646;52.450;13.326;2023-04-22T22:37:03;12.97;;;8.80;;
3267;SDS011;1646;52.450;13.326;2023-04-22T22:42:02;14.07;;;8.97;;
3267;SDS011;1646;52.450;13.326;2023-04-22T22:47:01;14.13;;;8.10;;
3267;SDS011;1646;52.450;13.326;2023-04-22T22:51:59;10.80;;;8.10;;
3267;SDS011;1646;52.450;13.326;2023-04-22T22:56:58;12.83;;;8.17;;
3267;SDS011;1646;52.450;13.326;2023-04-22T23:01:57;13.23;;;7.70;;
3267;SDS011;1646;52.450;13.326;2023-04-22T23:06:57;15.03;;;8.27;;
3267;SDS011;1646;52.450;13.326;2023-04-22T23:11:55;10.63;;;7.83;;
3267;SDS011;1646;52.450;13.326;2023-04-22T23:16:54;11.20;;;8.00;;
3267;SDS011;1646;52.450;13.326;2023-04-22T23:21:52;13.57;;;8.97;;
3267;SDS011;1646;52.450;13.326;2023-04-22T23:26:53;11.13;;;8.60;;
3267;SDS011;1646;52.450;13.326;2023-04-22T23:31:52;13.27;;;8.90;;
3267;SDS011;1646;52.450;13.326;2023-04-22T23:36:52;12.47;;;8.23;;
3267;SDS011;1646;52.450;13.326;2023-04-22T23:41:51;14.07;;;8.77;;
3267;SDS011;1646;52.450;13.326;2023-04-22T23:46:50;10.93;;;8.10;;
3267;SDS011;1646;52.450;13.326;2023-04-22T23:51:48;16.03;;;8.87;;
3267;SDS011;1646;52.450;13.326;2023-04-22T23:56:47;12.50;;;8.47;;
